West End, Texas
Current Conditions -  °F | °C
As of 3:55 AM on Sunday 23 Nov 2014 (Local Time) from KARM Reporting Station
Clear Clear  
Wind Chill: 16°   Ceiling: Unl
Heat Index: 16°   Visibility: 10mi
Dew Point: 15°   Wind: 9mph
Humidity: 97%   Direction: 230°SW
Pressure: 29.68"   Gusts: NA
Location:  29.1916°N, 96.2212°W
Report Text: KARM 230955Z AUTO 23008KT 10SM CLR 16/15 A2968 RMK AO2 T01550150
Loading
Personal Weather Stations






























Interactive Weather Map New forecast layout! Learn more

10-Day Weather Forecast

Advertisements
Track Severe Weather on mobile